sensor_id;sensor_type;location;lat;lon;timestamp;P1;durP1;ratioP1;P2;durP2;ratioP2
20824;SDS011;10573;50.936;6.978;2022-12-29T00:01:23;0.80;;;0.50;;
20824;SDS011;10573;50.936;6.978;2022-12-29T00:03:48;0.70;;;0.50;;
20824;SDS011;10573;50.936;6.978;2022-12-29T00:06:14;0.57;;;0.50;;
20824;SDS011;10573;50.936;6.978;2022-12-29T00:08:39;0.83;;;0.50;;
20824;SDS011;10573;50.936;6.978;2022-12-29T00:11:06;1.40;;;0.60;;
20824;SDS011;10573;50.936;6.978;2022-12-29T00:13:35;0.57;;;0.50;;
20824;SDS011;10573;50.936;6.978;2022-12-29T00:16:19;0.40;;;0.30;;
20824;SDS011;10573;50.936;6.978;2022-12-29T00:18:45;0.63;;;0.40;;
20824;SDS011;10573;50.936;6.978;2022-12-29T00:21:14;0.52;;;0.43;;
20824;SDS011;10573;50.936;6.978;2022-12-29T00:24:00;1.83;;;0.52;;
20824;SDS011;10573;50.936;6.978;2022-12-29T00:26:44;0.90;;;0.57;;
20824;SDS011;10573;50.936;6.978;2022-12-29T00:29:30;0.57;;;0.40;;
20824;SDS011;10573;50.936;6.978;2022-12-29T00:32:14;0.50;;;0.40;;
20824;SDS011;10573;50.936;6.978;2022-12-29T00:35:02;1.30;;;0.50;;
20824;SDS011;10573;50.936;6.978;2022-12-29T00:37:36;0.40;;;0.40;;
20824;SDS011;10573;50.936;6.978;2022-12-29T00:40:24;0.60;;;0.40;;
20824;SDS011;10573;50.936;6.978;2022-12-29T00:43:08;0.52;;;0.40;;
20824;SDS011;10573;50.936;6.978;2022-12-29T00:45:52;0.40;;;0.30;;
20824;SDS011;10573;50.936;6.978;2022-12-29T00:48:17;0.40;;;0.37;;
20824;SDS011;10573;50.936;6.978;2022-12-29T00:51:02;0.60;;;0.40;;
20824;SDS011;10573;50.936;6.978;2022-12-29T00:53:28;0.30;;;0.30;;
20824;SDS011;10573;50.936;6.978;2022-12-29T00:55:53;0.43;;;0.30;;
20824;SDS011;10573;50.936;6.978;2022-12-29T00:58:19;0.30;;;0.20;;
20824;SDS011;10573;50.936;6.978;2022-12-29T01:00:44;0.38;;;0.38;;
20824;SDS011;10573;50.936;6.978;2022-12-29T01:03:09;0.37;;;0.30;;
20824;SDS011;10573;50.936;6.978;2022-12-29T01:05:38;0.30;;;0.30;;
20824;SDS011;10573;50.936;6.978;2022-12-29T01:08:03;0.50;;;0.20;;
20824;SDS011;10573;50.936;6.978;2022-12-29T01:10:29;0.20;;;0.10;;
20824;SDS011;10573;50.936;6.978;2022-12-29T01:12:54;0.20;;;0.20;;
20824;SDS011;10573;50.936;6.978;2022-12-29T01:15:20;0.20;;;0.20;;
20824;SDS011;10573;50.936;6.978;2022-12-29T01:17:45;0.50;;;0.20;;
20824;SDS011;10573;50.936;6.978;2022-12-29T01:20:11;0.20;;;0.20;;
20824;SDS011;10573;50.936;6.978;2022-12-29T01:22:37;0.20;;;0.20;;
20824;SDS011;10573;50.936;6.978;2022-12-29T01:25:03;0.25;;;0.20;;
20824;SDS011;10573;50.936;6.978;2022-12-29T01:27:29;0.13;;;0.10;;
20824;SDS011;10573;50.936;6.978;2022-12-29T01:29:55;0.20;;;0.20;;
20824;SDS011;10573;50.936;6.978;2022-12-29T01:32:20;0.30;;;0.20;;
20824;SDS011;10573;50.936;6.978;2022-12-29T01:34:46;0.20;;;0.20;;
20824;SDS011;10573;50.936;6.978;2022-12-29T01:37:11;0.20;;;0.20;;
20824;SDS011;10573;50.936;6.978;2022-12-29T01:39:36;0.80;;;0.20;;
20824;SDS011;10573;50.936;6.978;2022-12-29T01:42:02;0.20;;;0.20;;
20824;SDS011;10573;50.936;6.978;2022-12-29T01:44:46;0.50;;;0.20;;
20824;SDS011;10573;50.936;6.978;2022-12-29T01:47:24;0.20;;;0.20;;
20824;SDS011;10573;50.936;6.978;2022-12-29T01:49:55;0.40;;;0.13;;
20824;SDS011;10573;50.936;6.978;2022-12-29T01:52:22;0.20;;;0.20;;
20824;SDS011;10573;50.936;6.978;2022-12-29T01:54:52;0.65;;;0.20;;
20824;SDS011;10573;50.936;6.978;2022-12-29T01:57:21;1.60;;;0.30;;
20824;SDS011;10573;50.936;6.978;2022-12-29T01:59:56;0.25;;;0.20;;
20824;SDS011;10573;50.936;6.978;2022-12-29T02:02:51;1.00;;;0.30;;
20824;SDS011;10573;50.936;6.978;2022-12-29T02:05:29;0.20;;;0.20;;
20824;SDS011;10573;50.936;6.978;2022-12-29T02:08:20;0.20;;;0.20;;
20824;SDS011;10573;50.936;6.978;2022-12-29T02:10:48;0.30;;;0.30;;
20824;SDS011;10573;50.936;6.978;2022-12-29T02:13:17;1.13;;;0.40;;
20824;SDS011;10573;50.936;6.978;2022-12-29T02:18:25;0.82;;;0.47;;
20824;SDS011;10573;50.936;6.978;2022-12-29T02:24:03;0.40;;;0.30;;
20824;SDS011;10573;50.936;6.978;2022-12-29T02:37:54;0.90;;;0.45;;
20824;SDS011;10573;50.936;6.978;2022-12-29T02:43:02;0.82;;;0.40;;
20824;SDS011;10573;50.936;6.978;2022-12-29T02:48:06;0.45;;;0.40;;
20824;SDS011;10573;50.936;6.978;2022-12-29T02:50:39;1.50;;;0.50;;
20824;SDS011;10573;50.936;6.978;2022-12-29T02:53:13;2.72;;;0.40;;
20824;SDS011;10573;50.936;6.978;2022-12-29T02:55:48;1.00;;;0.47;;
20824;SDS011;10573;50.936;6.978;2022-12-29T02:58:17;0.70;;;0.40;;
20824;SDS011;10573;50.936;6.978;2022-12-29T03:00:53;1.30;;;0.30;;
20824;SDS011;10573;50.936;6.978;2022-12-29T03:03:55;0.43;;;0.30;;
20824;SDS011;10573;50.936;6.978;2022-12-29T03:09:43;1.77;;;0.35;;
20824;SDS011;10573;50.936;6.978;2022-12-29T03:15:24;0.20;;;0.20;;
20824;SDS011;10573;50.936;6.978;2022-12-29T03:18:15;0.50;;;0.40;;
20824;SDS011;10573;50.936;6.978;2022-12-29T03:21:06;0.98;;;0.30;;
20824;SDS011;10573;50.936;6.978;2022-12-29T03:23:36;0.35;;;0.30;;
20824;SDS011;10573;50.936;6.978;2022-12-29T03:26:06;0.63;;;0.40;;
20824;SDS011;10573;50.936;6.978;2022-12-29T03:28:36;0.70;;;0.30;;
20824;SDS011;10573;50.936;6.978;2022-12-29T03:31:06;0.95;;;0.30;;
20824;SDS011;10573;50.936;6.978;2022-12-29T03:33:34;0.43;;;0.30;;
20824;SDS011;10573;50.936;6.978;2022-12-29T03:36:03;0.30;;;0.20;;
20824;SDS011;10573;50.936;6.978;2022-12-29T03:38:33;0.40;;;0.20;;
20824;SDS011;10573;50.936;6.978;2022-12-29T03:41:04;0.90;;;0.20;;
20824;SDS011;10573;50.936;6.978;2022-12-29T03:43:33;0.20;;;0.20;;
20824;SDS011;10573;50.936;6.978;2022-12-29T03:45:59;0.20;;;0.20;;
20824;SDS011;10573;50.936;6.978;2022-12-29T03:48:25;0.20;;;0.20;;
20824;SDS011;10573;50.936;6.978;2022-12-29T03:50:50;0.60;;;0.30;;
20824;SDS011;10573;50.936;6.978;2022-12-29T03:53:16;0.37;;;0.20;;
20824;SDS011;10573;50.936;6.978;2022-12-29T03:55:41;0.73;;;0.30;;
20824;SDS011;10573;50.936;6.978;2022-12-29T03:58:06;0.20;;;0.20;;
20824;SDS011;10573;50.936;6.978;2022-12-29T04:00:32;0.60;;;0.22;;
20824;SDS011;10573;50.936;6.978;2022-12-29T04:02:57;2.00;;;0.50;;
20824;SDS011;10573;50.936;6.978;2022-12-29T04:05:23;0.43;;;0.30;;
20824;SDS011;10573;50.936;6.978;2022-12-29T04:07:48;0.30;;;0.30;;
20824;SDS011;10573;50.936;6.978;2022-12-29T04:10:14;0.20;;;0.20;;
20824;SDS011;10573;50.936;6.978;2022-12-29T04:12:39;0.40;;;0.40;;
20824;SDS011;10573;50.936;6.978;2022-12-29T04:15:06;0.60;;;0.30;;
20824;SDS011;10573;50.936;6.978;2022-12-29T04:17:33;0.40;;;0.30;;
20824;SDS011;10573;50.936;6.978;2022-12-29T04:19:58;0.30;;;0.20;;
20824;SDS011;10573;50.936;6.978;2022-12-29T04:22:43;0.70;;;0.30;;
20824;SDS011;10573;50.936;6.978;2022-12-29T04:25:09;0.30;;;0.30;;
20824;SDS011;10573;50.936;6.978;2022-12-29T04:27:35;1.23;;;0.40;;
20824;SDS011;10573;50.936;6.978;2022-12-29T04:30:00;1.83;;;0.30;;
20824;SDS011;10573;50.936;6.978;2022-12-29T04:32:26;0.60;;;0.30;;
20824;SDS011;10573;50.936;6.978;2022-12-29T04:34:51;0.73;;;0.40;;
20824;SDS011;10573;50.936;6.978;2022-12-29T04:37:16;0.47;;;0.30;;
20824;SDS011;10573;50.936;6.978;2022-12-29T04:39:42;0.80;;;0.38;;
20824;SDS011;10573;50.936;6.978;2022-12-29T04:42:07;0.30;;;0.30;;
20824;SDS011;10573;50.936;6.978;2022-12-29T04:44:33;0.85;;;0.35;;
20824;SDS011;10573;50.936;6.978;2022-12-29T04:46:58;0.30;;;0.30;;
20824;SDS011;10573;50.936;6.978;2022-12-29T04:49:23;3.13;;;0.40;;
20824;SDS011;10573;50.936;6.978;2022-12-29T04:51:49;0.20;;;0.20;;
20824;SDS011;10573;50.936;6.978;2022-12-29T04:54:14;0.55;;;0.40;;
20824;SDS011;10573;50.936;6.978;2022-12-29T04:56:40;1.17;;;0.30;;
20824;SDS011;10573;50.936;6.978;2022-12-29T04:59:05;0.52;;;0.30;;
20824;SDS011;10573;50.936;6.978;2022-12-29T05:01:30;1.40;;;0.43;;
20824;SDS011;10573;50.936;6.978;2022-12-29T05:03:56;1.20;;;0.30;;
20824;SDS011;10573;50.936;6.978;2022-12-29T05:06:21;0.37;;;0.27;;
20824;SDS011;10573;50.936;6.978;2022-12-29T05:08:46;0.80;;;0.30;;
20824;SDS011;10573;50.936;6.978;2022-12-29T05:11:12;1.10;;;0.50;;
20824;SDS011;10573;50.936;6.978;2022-12-29T05:13:37;0.38;;;0.35;;
20824;SDS011;10573;50.936;6.978;2022-12-29T05:16:03;0.60;;;0.30;;
20824;SDS011;10573;50.936;6.978;2022-12-29T05:18:28;0.95;;;0.50;;
20824;SDS011;10573;50.936;6.978;2022-12-29T05:20:53;2.30;;;0.30;;
20824;SDS011;10573;50.936;6.978;2022-12-29T05:23:19;0.35;;;0.30;;
20824;SDS011;10573;50.936;6.978;2022-12-29T05:25:44;0.70;;;0.40;;
20824;SDS011;10573;50.936;6.978;2022-12-29T05:28:10;1.33;;;0.43;;
20824;SDS011;10573;50.936;6.978;2022-12-29T05:30:36;1.23;;;0.50;;
20824;SDS011;10573;50.936;6.978;2022-12-29T05:33:01;0.85;;;0.30;;
20824;SDS011;10573;50.936;6.978;2022-12-29T05:35:27;0.80;;;0.40;;
20824;SDS011;10573;50.936;6.978;2022-12-29T05:37:52;1.25;;;0.45;;
20824;SDS011;10573;50.936;6.978;2022-12-29T05:40:17;1.20;;;0.37;;
20824;SDS011;10573;50.936;6.978;2022-12-29T05:42:43;0.65;;;0.43;;
20824;SDS011;10573;50.936;6.978;2022-12-29T05:45:08;0.60;;;0.40;;
20824;SDS011;10573;50.936;6.978;2022-12-29T05:47:34;0.30;;;0.30;;
20824;SDS011;10573;50.936;6.978;2022-12-29T05:50:00;1.10;;;0.30;;
20824;SDS011;10573;50.936;6.978;2022-12-29T05:52:25;0.30;;;0.30;;
20824;SDS011;10573;50.936;6.978;2022-12-29T05:54:51;0.37;;;0.30;;
20824;SDS011;10573;50.936;6.978;2022-12-29T05:57:16;0.80;;;0.30;;
20824;SDS011;10573;50.936;6.978;2022-12-29T05:59:42;0.80;;;0.30;;
20824;SDS011;10573;50.936;6.978;2022-12-29T06:02:08;1.40;;;0.30;;
20824;SDS011;10573;50.936;6.978;2022-12-29T06:04:34;0.50;;;0.30;;
20824;SDS011;10573;50.936;6.978;2022-12-29T06:07:00;1.00;;;0.30;;
20824;SDS011;10573;50.936;6.978;2022-12-29T06:09:25;0.30;;;0.20;;
20824;SDS011;10573;50.936;6.978;2022-12-29T06:11:51;1.17;;;0.40;;
20824;SDS011;10573;50.936;6.978;2022-12-29T06:14:16;0.45;;;0.30;;
20824;SDS011;10573;50.936;6.978;2022-12-29T06:16:41;0.40;;;0.40;;
20824;SDS011;10573;50.936;6.978;2022-12-29T06:19:07;0.70;;;0.30;;
20824;SDS011;10573;50.936;6.978;2022-12-29T06:21:33;1.10;;;0.35;;
20824;SDS011;10573;50.936;6.978;2022-12-29T06:23:58;0.80;;;0.30;;
20824;SDS011;10573;50.936;6.978;2022-12-29T06:26:24;0.50;;;0.20;;
20824;SDS011;10573;50.936;6.978;2022-12-29T06:28:49;0.50;;;0.30;;
20824;SDS011;10573;50.936;6.978;2022-12-29T06:31:14;2.10;;;0.30;;
20824;SDS011;10573;50.936;6.978;2022-12-29T06:33:40;0.87;;;0.30;;
20824;SDS011;10573;50.936;6.978;2022-12-29T06:36:05;0.70;;;0.30;;
20824;SDS011;10573;50.936;6.978;2022-12-29T06:38:31;0.35;;;0.30;;
20824;SDS011;10573;50.936;6.978;2022-12-29T06:40:56;1.30;;;0.30;;
20824;SDS011;10573;50.936;6.978;2022-12-29T06:43:22;0.63;;;0.20;;
20824;SDS011;10573;50.936;6.978;2022-12-29T06:45:47;3.87;;;0.30;;
20824;SDS011;10573;50.936;6.978;2022-12-29T06:48:12;0.30;;;0.25;;
20824;SDS011;10573;50.936;6.978;2022-12-29T06:50:38;0.20;;;0.20;;
20824;SDS011;10573;50.936;6.978;2022-12-29T06:53:03;1.20;;;0.30;;
20824;SDS011;10573;50.936;6.978;2022-12-29T06:55:29;0.70;;;0.10;;
20824;SDS011;10573;50.936;6.978;2022-12-29T06:57:55;0.30;;;0.20;;
20824;SDS011;10573;50.936;6.978;2022-12-29T07:00:21;0.20;;;0.20;;
20824;SDS011;10573;50.936;6.978;2022-12-29T07:02:47;0.60;;;0.40;;
20824;SDS011;10573;50.936;6.978;2022-12-29T07:05:12;1.63;;;0.30;;
20824;SDS011;10573;50.936;6.978;2022-12-29T07:07:38;1.17;;;0.30;;
20824;SDS011;10573;50.936;6.978;2022-12-29T07:10:04;1.20;;;0.40;;
20824;SDS011;10573;50.936;6.978;2022-12-29T07:12:29;2.15;;;0.60;;
20824;SDS011;10573;50.936;6.978;2022-12-29T07:14:55;0.60;;;0.30;;
20824;SDS011;10573;50.936;6.978;2022-12-29T07:17:20;1.20;;;0.60;;
20824;SDS011;10573;50.936;6.978;2022-12-29T07:19:46;1.98;;;0.43;;
20824;SDS011;10573;50.936;6.978;2022-12-29T07:22:11;1.60;;;0.30;;
20824;SDS011;10573;50.936;6.978;2022-12-29T07:24:37;1.02;;;0.30;;
20824;SDS011;10573;50.936;6.978;2022-12-29T07:27:02;1.47;;;0.50;;
20824;SDS011;10573;50.936;6.978;2022-12-29T07:29:28;1.60;;;0.40;;
20824;SDS011;10573;50.936;6.978;2022-12-29T07:31:53;1.60;;;0.57;;
20824;SDS011;10573;50.936;6.978;2022-12-29T07:34:19;0.80;;;0.30;;
20824;SDS011;10573;50.936;6.978;2022-12-29T07:36:44;1.97;;;0.43;;
20824;SDS011;10573;50.936;6.978;2022-12-29T07:39:09;0.83;;;0.30;;
20824;SDS011;10573;50.936;6.978;2022-12-29T07:41:36;0.50;;;0.40;;
20824;SDS011;10573;50.936;6.978;2022-12-29T07:44:04;1.08;;;0.40;;
20824;SDS011;10573;50.936;6.978;2022-12-29T07:46:30;1.07;;;0.40;;
20824;SDS011;10573;50.936;6.978;2022-12-29T07:48:55;1.73;;;0.60;;
20824;SDS011;10573;50.936;6.978;2022-12-29T07:51:21;2.17;;;0.60;;
20824;SDS011;10573;50.936;6.978;2022-12-29T07:53:46;1.15;;;0.50;;
20824;SDS011;10573;50.936;6.978;2022-12-29T07:56:12;1.50;;;0.53;;
20824;SDS011;10573;50.936;6.978;2022-12-29T07:58:37;1.40;;;0.30;;
20824;SDS011;10573;50.936;6.978;2022-12-29T08:01:02;1.10;;;0.57;;
20824;SDS011;10573;50.936;6.978;2022-12-29T08:03:28;2.30;;;0.60;;
20824;SDS011;10573;50.936;6.978;2022-12-29T08:05:53;1.55;;;0.50;;
20824;SDS011;10573;50.936;6.978;2022-12-29T08:08:19;2.03;;;0.60;;
20824;SDS011;10573;50.936;6.978;2022-12-29T08:10:45;2.83;;;0.70;;
20824;SDS011;10573;50.936;6.978;2022-12-29T08:13:10;2.00;;;0.50;;
20824;SDS011;10573;50.936;6.978;2022-12-29T08:15:37;1.67;;;0.52;;
20824;SDS011;10573;50.936;6.978;2022-12-29T08:18:03;1.60;;;0.50;;
20824;SDS011;10573;50.936;6.978;2022-12-29T08:20:28;4.80;;;0.60;;
20824;SDS011;10573;50.936;6.978;2022-12-29T08:22:54;3.00;;;0.70;;
20824;SDS011;10573;50.936;6.978;2022-12-29T08:25:20;2.23;;;0.50;;
20824;SDS011;10573;50.936;6.978;2022-12-29T08:27:46;2.00;;;0.60;;
20824;SDS011;10573;50.936;6.978;2022-12-29T08:30:11;3.90;;;0.63;;
20824;SDS011;10573;50.936;6.978;2022-12-29T08:32:37;2.40;;;0.50;;
20824;SDS011;10573;50.936;6.978;2022-12-29T08:35:02;1.90;;;0.53;;
20824;SDS011;10573;50.936;6.978;2022-12-29T08:37:28;2.27;;;0.90;;
20824;SDS011;10573;50.936;6.978;2022-12-29T08:39:54;3.63;;;0.70;;
20824;SDS011;10573;50.936;6.978;2022-12-29T08:42:19;2.23;;;0.47;;
20824;SDS011;10573;50.936;6.978;2022-12-29T08:44:44;3.07;;;0.70;;
20824;SDS011;10573;50.936;6.978;2022-12-29T08:47:10;4.53;;;0.63;;
20824;SDS011;10573;50.936;6.978;2022-12-29T08:49:36;2.22;;;0.60;;
20824;SDS011;10573;50.936;6.978;2022-12-29T08:52:02;4.30;;;0.60;;
20824;SDS011;10573;50.936;6.978;2022-12-29T08:54:27;3.73;;;0.70;;
20824;SDS011;10573;50.936;6.978;2022-12-29T08:56:53;3.15;;;0.63;;
20824;SDS011;10573;50.936;6.978;2022-12-29T08:59:18;2.50;;;0.60;;
20824;SDS011;10573;50.936;6.978;2022-12-29T09:01:44;6.90;;;0.97;;
20824;SDS011;10573;50.936;6.978;2022-12-29T09:04:09;3.10;;;0.65;;
20824;SDS011;10573;50.936;6.978;2022-12-29T09:06:35;2.37;;;0.60;;
20824;SDS011;10573;50.936;6.978;2022-12-29T09:09:00;3.80;;;0.97;;
20824;SDS011;10573;50.936;6.978;2022-12-29T09:11:26;5.63;;;0.80;;
20824;SDS011;10573;50.936;6.978;2022-12-29T09:13:52;4.13;;;0.80;;
20824;SDS011;10573;50.936;6.978;2022-12-29T09:16:18;1.42;;;0.50;;
20824;SDS011;10573;50.936;6.978;2022-12-29T09:18:46;4.00;;;0.75;;
20824;SDS011;10573;50.936;6.978;2022-12-29T09:21:11;1.63;;;0.67;;
20824;SDS011;10573;50.936;6.978;2022-12-29T09:23:37;2.30;;;0.80;;
20824;SDS011;10573;50.936;6.978;2022-12-29T09:26:03;3.45;;;0.70;;
20824;SDS011;10573;50.936;6.978;2022-12-29T09:28:29;5.78;;;0.63;;
20824;SDS011;10573;50.936;6.978;2022-12-29T09:30:55;5.88;;;0.80;;
20824;SDS011;10573;50.936;6.978;2022-12-29T09:33:22;3.45;;;0.63;;
20824;SDS011;10573;50.936;6.978;2022-12-29T09:35:51;1.73;;;0.50;;
20824;SDS011;10573;50.936;6.978;2022-12-29T09:38:18;4.30;;;0.70;;
20824;SDS011;10573;50.936;6.978;2022-12-29T09:40:45;3.75;;;0.75;;
20824;SDS011;10573;50.936;6.978;2022-12-29T09:45:59;3.33;;;0.93;;
20824;SDS011;10573;50.936;6.978;2022-12-29T09:48:33;2.80;;;0.70;;
20824;SDS011;10573;50.936;6.978;2022-12-29T09:51:08;3.47;;;0.90;;
20824;SDS011;10573;50.936;6.978;2022-12-29T09:53:39;1.70;;;0.70;;
20824;SDS011;10573;50.936;6.978;2022-12-29T09:56:11;5.03;;;0.85;;
20824;SDS011;10573;50.936;6.978;2022-12-29T09:58:41;5.43;;;0.90;;
20824;SDS011;10573;50.936;6.978;2022-12-29T10:03:47;3.88;;;0.90;;
20824;SDS011;10573;50.936;6.978;2022-12-29T10:08:44;3.10;;;0.77;;
20824;SDS011;10573;50.936;6.978;2022-12-29T10:11:24;3.83;;;0.73;;
20824;SDS011;10573;50.936;6.978;2022-12-29T10:17:57;4.15;;;0.90;;
20824;SDS011;10573;50.936;6.978;2022-12-29T10:20:10;5.82;;;0.70;;
20824;SDS011;10573;50.936;6.978;2022-12-29T10:25:26;3.42;;;1.10;;
20824;SDS011;10573;50.936;6.978;2022-12-29T10:27:56;3.83;;;0.93;;
20824;SDS011;10573;50.936;6.978;2022-12-29T10:30:24;4.78;;;0.93;;
20824;SDS011;10573;50.936;6.978;2022-12-29T10:32:51;5.03;;;1.23;;
20824;SDS011;10573;50.936;6.978;2022-12-29T10:35:23;3.63;;;0.70;;
20824;SDS011;10573;50.936;6.978;2022-12-29T10:38:01;3.00;;;0.65;;
20824;SDS011;10573;50.936;6.978;2022-12-29T10:40:38;3.67;;;0.90;;
20824;SDS011;10573;50.936;6.978;2022-12-29T10:45:54;3.35;;;0.63;;
20824;SDS011;10573;50.936;6.978;2022-12-29T10:48:34;4.18;;;0.98;;
20824;SDS011;10573;50.936;6.978;2022-12-29T10:51:04;2.85;;;0.70;;
20824;SDS011;10573;50.936;6.978;2022-12-29T10:53:53;3.20;;;0.70;;
20824;SDS011;10573;50.936;6.978;2022-12-29T10:56:45;3.20;;;1.00;;
20824;SDS011;10573;50.936;6.978;2022-12-29T10:59:22;2.97;;;0.65;;
20824;SDS011;10573;50.936;6.978;2022-12-29T11:01:52;2.08;;;0.70;;
20824;SDS011;10573;50.936;6.978;2022-12-29T11:04:30;3.70;;;0.90;;
20824;SDS011;10573;50.936;6.978;2022-12-29T11:07:00;3.00;;;0.70;;
20824;SDS011;10573;50.936;6.978;2022-12-29T11:09:31;5.43;;;0.73;;
20824;SDS011;10573;50.936;6.978;2022-12-29T11:11:58;2.33;;;0.77;;
20824;SDS011;10573;50.936;6.978;2022-12-29T11:14:28;2.63;;;0.80;;
20824;SDS011;10573;50.936;6.978;2022-12-29T11:16:59;4.30;;;0.63;;
20824;SDS011;10573;50.936;6.978;2022-12-29T11:19:29;2.83;;;0.70;;
20824;SDS011;10573;50.936;6.978;2022-12-29T11:22:42;3.22;;;1.05;;
20824;SDS011;10573;50.936;6.978;2022-12-29T11:24:54;4.32;;;0.77;;
20824;SDS011;10573;50.936;6.978;2022-12-29T11:27:31;3.08;;;0.50;;
20824;SDS011;10573;50.936;6.978;2022-12-29T11:29:57;4.70;;;0.73;;
20824;SDS011;10573;50.936;6.978;2022-12-29T11:32:27;4.30;;;1.20;;
20824;SDS011;10573;50.936;6.978;2022-12-29T11:34:57;4.30;;;0.98;;
20824;SDS011;10573;50.936;6.978;2022-12-29T11:37:26;4.97;;;0.95;;
20824;SDS011;10573;50.936;6.978;2022-12-29T11:42:36;2.70;;;0.80;;
20824;SDS011;10573;50.936;6.978;2022-12-29T11:50:36;3.92;;;0.98;;
20824;SDS011;10573;50.936;6.978;2022-12-29T11:53:15;1.88;;;0.68;;
20824;SDS011;10573;50.936;6.978;2022-12-29T11:55:54;5.57;;;0.77;;
20824;SDS011;10573;50.936;6.978;2022-12-29T11:58:33;4.65;;;0.70;;
20824;SDS011;10573;50.936;6.978;2022-12-29T12:01:20;3.77;;;0.80;;
20824;SDS011;10573;50.936;6.978;2022-12-29T12:04:05;2.67;;;0.80;;
20824;SDS011;10573;50.936;6.978;2022-12-29T12:06:39;4.63;;;1.10;;
20824;SDS011;10573;50.936;6.978;2022-12-29T12:09:25;5.03;;;0.77;;
20824;SDS011;10573;50.936;6.978;2022-12-29T12:11:55;3.33;;;0.80;;
20824;SDS011;10573;50.936;6.978;2022-12-29T12:16:53;4.53;;;0.98;;
20824;SDS011;10573;50.936;6.978;2022-12-29T12:22:28;7.25;;;1.10;;
20824;SDS011;10573;50.936;6.978;2022-12-29T12:30:33;3.88;;;0.80;;
20824;SDS011;10573;50.936;6.978;2022-12-29T12:33:10;2.97;;;1.00;;
20824;SDS011;10573;50.936;6.978;2022-12-29T12:38:15;6.63;;;1.00;;
20824;SDS011;10573;50.936;6.978;2022-12-29T12:41:02;3.63;;;0.93;;
20824;SDS011;10573;50.936;6.978;2022-12-29T12:43:51;9.20;;;1.13;;
20824;SDS011;10573;50.936;6.978;2022-12-29T12:50:02;5.32;;;0.95;;
20824;SDS011;10573;50.936;6.978;2022-12-29T12:57:44;2.90;;;0.90;;
20824;SDS011;10573;50.936;6.978;2022-12-29T13:00:13;3.72;;;0.80;;
20824;SDS011;10573;50.936;6.978;2022-12-29T13:05:31;4.38;;;0.80;;
20824;SDS011;10573;50.936;6.978;2022-12-29T13:19:10;3.95;;;0.80;;
20824;SDS011;10573;50.936;6.978;2022-12-29T13:27:26;2.55;;;0.80;;
20824;SDS011;10573;50.936;6.978;2022-12-29T13:30:04;5.10;;;1.02;;
20824;SDS011;10573;50.936;6.978;2022-12-29T13:40:38;7.55;;;1.00;;
20824;SDS011;10573;50.936;6.978;2022-12-29T13:43:08;3.38;;;0.80;;
20824;SDS011;10573;50.936;6.978;2022-12-29T13:45:34;5.45;;;0.95;;
20824;SDS011;10573;50.936;6.978;2022-12-29T13:48:17;5.13;;;1.25;;
20824;SDS011;10573;50.936;6.978;2022-12-29T13:50:50;4.32;;;0.90;;
20824;SDS011;10573;50.936;6.978;2022-12-29T13:53:35;4.50;;;0.82;;
20824;SDS011;10573;50.936;6.978;2022-12-29T14:01:20;6.00;;;1.20;;
20824;SDS011;10573;50.936;6.978;2022-12-29T14:03:57;6.70;;;1.33;;
20824;SDS011;10573;50.936;6.978;2022-12-29T14:06:25;3.67;;;0.90;;
20824;SDS011;10573;50.936;6.978;2022-12-29T14:08:57;5.32;;;1.27;;
20824;SDS011;10573;50.936;6.978;2022-12-29T14:11:28;4.80;;;0.98;;
20824;SDS011;10573;50.936;6.978;2022-12-29T14:13:56;9.15;;;1.30;;
20824;SDS011;10573;50.936;6.978;2022-12-29T14:16:26;3.13;;;1.02;;
20824;SDS011;10573;50.936;6.978;2022-12-29T14:19:33;4.55;;;1.10;;
20824;SDS011;10573;50.936;6.978;2022-12-29T14:22:04;4.53;;;1.20;;
20824;SDS011;10573;50.936;6.978;2022-12-29T14:34:55;4.82;;;0.70;;
20824;SDS011;10573;50.936;6.978;2022-12-29T14:37:25;2.42;;;0.80;;
20824;SDS011;10573;50.936;6.978;2022-12-29T14:40:06;3.47;;;1.00;;
20824;SDS011;10573;50.936;6.978;2022-12-29T14:42:45;4.50;;;0.80;;
20824;SDS011;10573;50.936;6.978;2022-12-29T14:47:40;2.53;;;0.70;;
20824;SDS011;10573;50.936;6.978;2022-12-29T14:55:28;7.07;;;1.20;;
20824;SDS011;10573;50.936;6.978;2022-12-29T14:58:23;4.03;;;1.10;;
20824;SDS011;10573;50.936;6.978;2022-12-29T15:00:53;2.60;;;1.10;;
20824;SDS011;10573;50.936;6.978;2022-12-29T15:03:29;3.85;;;1.00;;
20824;SDS011;10573;50.936;6.978;2022-12-29T15:06:09;3.38;;;0.80;;
20824;SDS011;10573;50.936;6.978;2022-12-29T15:08:48;7.72;;;1.13;;
20824;SDS011;10573;50.936;6.978;2022-12-29T15:11:18;3.58;;;0.95;;
20824;SDS011;10573;50.936;6.978;2022-12-29T15:13:49;3.78;;;1.10;;
20824;SDS011;10573;50.936;6.978;2022-12-29T15:18:57;5.68;;;1.10;;
20824;SDS011;10573;50.936;6.978;2022-12-29T15:21:30;4.53;;;1.00;;
20824;SDS011;10573;50.936;6.978;2022-12-29T15:23:58;5.50;;;1.05;;
20824;SDS011;10573;50.936;6.978;2022-12-29T15:26:24;4.17;;;1.17;;
20824;SDS011;10573;50.936;6.978;2022-12-29T15:29:02;8.73;;;1.02;;
20824;SDS011;10573;50.936;6.978;2022-12-29T15:31:27;5.22;;;1.27;;
20824;SDS011;10573;50.936;6.978;2022-12-29T15:33:54;7.80;;;1.30;;
20824;SDS011;10573;50.936;6.978;2022-12-29T15:36:27;4.53;;;1.13;;
20824;SDS011;10573;50.936;6.978;2022-12-29T15:38:54;5.20;;;1.00;;
20824;SDS011;10573;50.936;6.978;2022-12-29T15:44:00;4.75;;;1.00;;
20824;SDS011;10573;50.936;6.978;2022-12-29T15:46:37;5.27;;;1.40;;
20824;SDS011;10573;50.936;6.978;2022-12-29T15:49:06;5.43;;;1.20;;
20824;SDS011;10573;50.936;6.978;2022-12-29T15:51:35;3.58;;;1.02;;
20824;SDS011;10573;50.936;6.978;2022-12-29T15:54:03;3.95;;;1.23;;
20824;SDS011;10573;50.936;6.978;2022-12-29T15:56:29;4.00;;;1.40;;
20824;SDS011;10573;50.936;6.978;2022-12-29T15:58:56;8.90;;;1.40;;
20824;SDS011;10573;50.936;6.978;2022-12-29T16:01:27;7.63;;;1.30;;
20824;SDS011;10573;50.936;6.978;2022-12-29T16:03:58;6.93;;;1.20;;
20824;SDS011;10573;50.936;6.978;2022-12-29T16:06:28;4.22;;;1.00;;
20824;SDS011;10573;50.936;6.978;2022-12-29T16:11:34;7.00;;;1.40;;
20824;SDS011;10573;50.936;6.978;2022-12-29T16:14:06;4.15;;;1.10;;
20824;SDS011;10573;50.936;6.978;2022-12-29T16:16:35;4.30;;;1.20;;
20824;SDS011;10573;50.936;6.978;2022-12-29T16:19:08;6.03;;;1.50;;
20824;SDS011;10573;50.936;6.978;2022-12-29T16:21:49;6.47;;;1.30;;
20824;SDS011;10573;50.936;6.978;2022-12-29T16:24:16;6.47;;;1.63;;
20824;SDS011;10573;50.936;6.978;2022-12-29T16:26:49;7.28;;;1.70;;
20824;SDS011;10573;50.936;6.978;2022-12-29T16:29:19;7.25;;;1.27;;
20824;SDS011;10573;50.936;6.978;2022-12-29T16:31:51;6.43;;;1.37;;
20824;SDS011;10573;50.936;6.978;2022-12-29T16:37:05;6.37;;;1.30;;
20824;SDS011;10573;50.936;6.978;2022-12-29T16:47:47;4.55;;;1.15;;
20824;SDS011;10573;50.936;6.978;2022-12-29T16:50:19;2.77;;;0.90;;
20824;SDS011;10573;50.936;6.978;2022-12-29T16:52:49;7.60;;;1.48;;
20824;SDS011;10573;50.936;6.978;2022-12-29T16:55:16;8.33;;;1.50;;
20824;SDS011;10573;50.936;6.978;2022-12-29T16:57:43;7.10;;;1.23;;
20824;SDS011;10573;50.936;6.978;2022-12-29T17:00:19;5.63;;;1.58;;
20824;SDS011;10573;50.936;6.978;2022-12-29T17:02:48;6.05;;;1.35;;
20824;SDS011;10573;50.936;6.978;2022-12-29T17:05:16;5.63;;;1.40;;
20824;SDS011;10573;50.936;6.978;2022-12-29T17:07:43;3.22;;;1.30;;
20824;SDS011;10573;50.936;6.978;2022-12-29T17:10:09;7.45;;;1.50;;
20824;SDS011;10573;50.936;6.978;2022-12-29T17:12:35;3.10;;;1.20;;
20824;SDS011;10573;50.936;6.978;2022-12-29T17:15:12;9.15;;;2.42;;
20824;SDS011;10573;50.936;6.978;2022-12-29T17:17:46;4.90;;;1.30;;
20824;SDS011;10573;50.936;6.978;2022-12-29T17:22:39;6.00;;;1.60;;
20824;SDS011;10573;50.936;6.978;2022-12-29T17:25:04;9.00;;;1.70;;
20824;SDS011;10573;50.936;6.978;2022-12-29T17:27:31;9.73;;;2.35;;
20824;SDS011;10573;50.936;6.978;2022-12-29T17:30:11;8.90;;;1.55;;
20824;SDS011;10573;50.936;6.978;2022-12-29T17:32:42;7.53;;;1.65;;